IAD weather

Washington Dulles International Airport
Washington, District of Columbia, United States

Public forecast

Using degrees Fahrenheit for public forecast. Weather courtesy of forecast.io.

Current aviation weather report (METAR) for Washington Dulles International Airport

Retrieved 2019/10/23 00:52 UTC (44 minutes ago):

KIAD 230052Z 31004KT 10SM FEW049 SCT060 14/13 A2986 RMK AO2 SLP112 T01390128

Aviation forecast (TAF) for Washington Dulles International Airport

Retrieved 2019-10-23 00:39 UTC (57 minutes ago):

TAF KIAD 222336Z 2300/2406 31008KT P6SM SCT010 BKN070 TEMPO 2300/2304 BKN008 FM230400 31006KT P6SM SCT150 FM231500 29010G17KT P6SM SKC FM240000 VRB03KT P6SM SKC